Orbital elements of COSMOS 2251 DEB
| Launched | 15 June 1993 |
| Flight ended | – |
| Launch site | Plesetsk Missile and Space Complex, Russia |
| Owner | Commonwealth of Independent States (former USSR) |
| NORAD ID | 34004 |
| Date fetched |
Epoch osculation |
Inc. [°] |
Ecc. | RA asc node [hr] |
Arg Peri. [°] |
Mean anom [°] |
Mean motion [rev/day] |
Abs. mag |
| Date fetched |
Epoch osculation |
Inc. [°] |
Ecc. | RA asc node [hr] |
Arg Peri. [°] |
Mean anom [°] |
Mean motion [rev/day] |
Abs. mag |
| 2026 May 03 17:57 | 2026 Apr 30 05:30:45 | 74.0357 | 0.00289 | 3.5424 | 36.1112 | 324.1995 | 14.50293 | – |
| 2026 May 02 17:57 | 2026 Apr 30 05:30:45 | 74.0357 | 0.00289 | 3.5424 | 36.1112 | 324.1995 | 14.50293 | – |
| 2026 May 01 17:56 | 2026 Apr 30 05:30:45 | 74.0357 | 0.00289 | 3.5424 | 36.1112 | 324.1995 | 14.50293 | – |
| 2026 Apr 30 17:56 | 2026 Apr 30 05:30:45 | 74.0357 | 0.00289 | 3.5424 | 36.1112 | 324.1995 | 14.50293 | – |
| 2026 Apr 29 17:57 | 2026 Apr 24 07:08:10 | 74.0343 | 0.00286 | 4.2855 | 48.5510 | 324.1995 | 14.50293 | – |
| 2026 Apr 28 17:56 | 2026 Apr 24 07:08:10 | 74.0343 | 0.00286 | 4.2855 | 48.5510 | 324.1995 | 14.50293 | – |
| 2026 Apr 27 17:58 | 2026 Apr 24 07:08:10 | 74.0343 | 0.00286 | 4.2855 | 48.5510 | 324.1995 | 14.50293 | – |
| 2026 Apr 26 17:58 | 2026 Apr 24 07:08:10 | 74.0343 | 0.00286 | 4.2855 | 48.5510 | 324.1995 | 14.50293 | – |
| 2026 Apr 25 17:58 | 2026 Apr 24 07:08:10 | 74.0343 | 0.00286 | 4.2855 | 48.5510 | 324.1995 | 14.50293 | – |
| 2026 Apr 24 17:59 | 2026 Apr 24 07:08:10 | 74.0343 | 0.00286 | 4.2855 | 48.5510 | 324.1995 | 14.50293 | – |
| 2026 Apr 23 17:57 | 2026 Apr 16 21:59:17 | 74.0333 | 0.00281 | 5.2100 | 64.2919 | 324.1995 | 14.50293 | – |
| 2026 Apr 22 17:57 | 2026 Apr 16 21:59:17 | 74.0333 | 0.00281 | 5.2100 | 64.2919 | 324.1995 | 14.50293 | – |
| 2026 Apr 21 17:57 | 2026 Apr 16 21:59:17 | 74.0333 | 0.00281 | 5.2100 | 64.2919 | 324.1995 | 14.50293 | – |
| 2026 Apr 20 17:57 | 2026 Apr 16 21:59:17 | 74.0333 | 0.00281 | 5.2100 | 64.2919 | 324.1995 | 14.50293 | – |
| 2026 Apr 19 17:58 | 2026 Apr 16 21:59:17 | 74.0333 | 0.00281 | 5.2100 | 64.2919 | 324.1995 | 14.50293 | – |
| 2026 Apr 18 17:56 | 2026 Apr 12 23:37:04 | 74.0328 | 0.00280 | 5.7025 | 72.8968 | 324.1995 | 14.50293 | – |
| 2026 Apr 16 17:57 | 2026 Apr 12 23:37:04 | 74.0328 | 0.00280 | 5.7025 | 72.8968 | 324.1995 | 14.50293 | – |
| 2026 Apr 14 17:57 | 2026 Apr 12 23:37:04 | 74.0328 | 0.00280 | 5.7025 | 72.8968 | 324.1995 | 14.50293 | – |
| 2026 Apr 13 17:57 | 2026 Apr 12 23:37:04 | 74.0328 | 0.00280 | 5.7025 | 72.8968 | 324.1995 | 14.50293 | – |
| 2026 Apr 12 17:57 | 2026 Apr 08 10:20:45 | 74.0329 | 0.00278 | 6.2728 | 82.9856 | 324.1995 | 14.50293 | – |
| 2026 Apr 11 17:57 | 2026 Apr 08 10:20:45 | 74.0329 | 0.00278 | 6.2728 | 82.9856 | 324.1995 | 14.50293 | – |
| 2026 Apr 10 17:58 | 2026 Apr 08 10:20:45 | 74.0329 | 0.00278 | 6.2728 | 82.9856 | 324.1995 | 14.50293 | – |
| 2026 Apr 09 18:01 | 2026 Apr 08 10:20:45 | 74.0329 | 0.00278 | 6.2728 | 82.9856 | 324.1995 | 14.50293 | – |
| 2026 Apr 08 17:57 | 2026 Apr 08 10:20:45 | 74.0329 | 0.00278 | 6.2728 | 82.9856 | 324.1995 | 14.50293 | – |
| 2026 Apr 07 17:57 | 2026 Apr 02 02:01:24 | 74.0326 | 0.00278 | 7.0677 | 97.1306 | 324.1995 | 14.50293 | – |
| 2026 Apr 06 17:57 | 2026 Apr 02 02:01:24 | 74.0326 | 0.00278 | 7.0677 | 97.1306 | 324.1995 | 14.50293 | – |